Wanamakers, Pennsylvania
Current Conditions -  °F | °C
As of 7:54 PM on Sunday 23 Nov 2014 (Local Time) from KRDG Reporting Station
Clear Clear  
Wind Chill: 11°   Ceiling: Unl
Heat Index: 11°   Visibility: 10mi
Dew Point:   Wind: 9mph
Humidity: 50%   Direction: 160°SSE
Pressure: 30.05"   Gusts: NA
Location:  40.6329°N, 75.8768°W
Report Text: KRDG 240054Z AUTO 16008KT 10SM CLR 11/01 A3005 RMK AO2 SLP180 T01060006
Loading
Personal Weather Stations






























Interactive Weather Map New forecast layout! Learn more

10-Day Weather Forecast

Advertisements
Track Severe Weather on mobile